Peel: Past 24 Hour Conditions

 

Resolute Airport

02:00 PM CDT 25 October 2014
This table is a summary of hourly weather conditions for the past 24 hours.
Date / Time
(CDT)
Wind(knots) Conditions Visibility(km) Pressure(kPa) Air tempC) Relative humidity(%) Dew pointC) Wind Chill
25 October 2014
14:00 E 13 Ice Crystals 16 102.2 -18 84 -20 -28
13:00 E 14 Ice Crystals 19 102.2 -18 84 -20 -29
12:00 E 13 Ice Crystals 13 102.3 -18 84 -20 -28
11:00 ENE 15 Ice Crystals 4 102.3 -18 83 -20 -29
10:00 E 8 Ice Crystals 4 102.3 -18 84 -20 -26
9:00 E 5 Ice Crystals 16 102.4 -20 83 -22 -27
8:00 E 11 Clear 24 102.4 -21 80 -24 -32
7:00 NE 7 Mainly Clear 16 102.4 -20 82 -22 -28
6:00 NE 9 Ice Crystals 10 102.4 -20 82 -22 -30
5:00 NE 10 Ice Crystals 1 102.4 -19 83 -22 -29
4:00 NE 11 Ice Crystals 1 102.4 -19 83 -21 -29
3:00 NE 11 Light Snow 1 102.5 -18 84 -20 -28
2:00 NE 9 Light Snow 8 102.5 -17 84 -19 -26
1:00 NNE 8 Light Snow 10 102.5 -16 85 -18 -25
0:00 NNE 7 Light Snow 16 102.4 -16 85 -18 -23
24 October 2014
23:00 N 7 Light Snow 15 102.5 -16 85 -17 -23
22:00 N 8 Light Snow 13 102.5 -15 86 -17 -23
21:00 N 8 Light Snow 19 102.5 -16 85 -18 -24
20:00 NNE 10 Light Snow 19 102.5 -16 86 -18 -25
19:00 N 10 Light Snow 21 102.5 -16 85 -18 -25
18:00 NNW 7 Light Snow 24 102.5 -17 85 -19 -24
17:00 N 8 Light Snow 24 102.5 -17 85 -19 -26
16:00 N 9 Light Snow 24 102.5 -18 84 -20 -27
15:00 N 10 Light Snow 24 102.5 -18 85 -20 -27
14:00 NNW 12 Light Snow 19 102.5 -17 85 -19 -28
 
Map of Arctic - Eastern Arctic marine weather areas Baker Lake Airport Chesterfield Inlet Airport Coral Harbour Airport Gjoa Haven Airport Kugaaruk Airport Rankin Inlet Airport Shepherd Bay Airport Whale Cove Airport Arctic Bay Brevoort Island Qikiqtarjuaq Airport Cape Dorset Airport Cape Dyer Cape Hooper Clyde Airport Grise Fiord Airport Hall Beach Airport Igloolik Airport Iqaluit Airport Longstaff Bluff Pangnirtung Airport Pond Inlet Airport Repulse Bay Airport Resolute Airport Resolution Island Rowley Island Airport Taloyoak Airport Wager Bay Akulivik Airport Ivujivik Airport Puvirnituq Airport Kangiqsujuaq Airport Kangirsuk Airport Quaqtaq Airport Tasiujaq Airport Cape Kakkiviak Cape Kiglapait Nain Airport Saglek Cape Mercy Kimmirut Airport Aupaluk Airport Salluit Airport Kangiqsualujjuaq Airport Fort Ross
Legend: buoyBuoy land stationLand Station